Time;durP1;ratioP1;P1;durP2;ratioP2;P2;SDS_P1;SDS_P2;PMS_P1;PMS_P2;Temp;Humidity;BMP_temperature;BMP_pressure;BME280_temperature;BME280_humidity;BME280_pressure;Samples;Min_cycle;Max_cycle;Signal;HPM_P1;HPM_P2
2023/01/07 00:00:17;;;;;;;5.17;4.07;;;6.00;99.90;;;;;;8296656;28;20221;-69
2023/01/07 00:04:18;;;;;;;6.70;4.40;;;6.00;99.90;;;;;;8299644;28;20194;-69
2023/01/07 00:08:19;;;;;;;6.13;4.17;;;6.00;99.90;;;;;;8300528;28;20191;-68
2023/01/07 00:12:19;;;;;;;7.13;4.33;;;5.90;99.90;;;;;;8299590;28;20201;-69
2023/01/07 00:16:23;;;;;;;6.33;3.90;;;5.90;99.90;;;;;;8296238;28;20248;-70
2023/01/07 00:20:24;;;;;;;7.57;4.93;;;5.90;99.90;;;;;;8301467;28;20191;-68
2023/01/07 00:24:25;;;;;;;6.53;4.70;;;5.90;99.90;;;;;;8298849;28;20186;-69
2023/01/07 00:28:26;;;;;;;6.97;4.17;;;5.90;99.90;;;;;;8301252;28;20205;-70
2023/01/07 00:32:56;;;;;;;6.50;4.60;;;5.90;99.90;;;;;;8297780;28;20201;-69
2023/01/07 00:36:48;;;;;;;6.37;5.00;;;6.00;99.90;;;;;;8300277;28;20297;-69
2023/01/07 00:40:49;;;;;;;7.03;4.70;;;5.90;99.90;;;;;;8297116;28;20194;-69
2023/01/07 00:44:50;;;;;;;6.70;4.37;;;6.00;99.90;;;;;;8298324;28;20197;-69
2023/01/07 00:48:50;;;;;;;5.33;4.30;;;5.90;99.90;;;;;;8299163;28;20198;-69
2023/01/07 00:52:52;;;;;;;6.83;3.83;;;5.90;99.90;;;;;;8302678;28;20205;-68
2023/01/07 00:56:53;;;;;;;5.83;3.93;;;5.90;99.90;;;;;;8294338;28;20214;-70
2023/01/07 01:00:55;;;;;;;5.07;3.60;;;5.80;99.90;;;;;;8298162;28;20209;-68
2023/01/07 01:04:56;;;;;;;5.10;3.30;;;5.70;99.90;;;;;;8293094;28;20190;-68
2023/01/07 01:08:57;;;;;;;7.57;3.43;;;5.70;99.90;;;;;;8293039;28;20197;-68
2023/01/07 01:12:58;;;;;;;5.03;2.87;;;5.70;99.90;;;;;;8293209;28;20206;-68
2023/01/07 01:16:59;;;;;;;4.60;3.30;;;5.60;99.90;;;;;;8302498;28;20222;-69
2023/01/07 01:21:09;;;;;;;3.80;3.00;;;5.50;99.90;;;;;;8295041;28;20190;-70
2023/01/07 01:25:12;;;;;;;4.60;2.67;;;5.40;99.90;;;;;;8301499;28;20202;-69
2023/01/07 01:29:13;;;;;;;6.57;3.30;;;5.40;99.90;;;;;;8300761;28;20194;-70
2023/01/07 01:33:14;;;;;;;4.30;3.27;;;5.40;99.90;;;;;;8296488;28;20206;-69
2023/01/07 01:37:15;;;;;;;4.17;2.83;;;5.40;99.90;;;;;;8300632;28;20214;-69
2023/01/07 01:41:16;;;;;;;5.90;3.20;;;5.40;99.90;;;;;;8297510;28;20209;-70
2023/01/07 01:45:17;;;;;;;5.03;3.10;;;5.40;99.90;;;;;;8298268;28;20190;-70
2023/01/07 01:49:24;;;;;;;4.13;3.33;;;5.30;99.90;;;;;;8298741;28;20217;-70
2023/01/07 01:53:31;;;;;;;3.87;3.20;;;5.30;99.90;;;;;;8300145;28;20241;-69
2023/01/07 01:57:35;;;;;;;3.83;2.83;;;5.30;99.90;;;;;;8298386;28;20241;-70
2023/01/07 02:01:36;;;;;;;3.53;2.90;;;5.20;99.90;;;;;;8301942;28;20190;-69
2023/01/07 02:05:39;;;;;;;4.50;3.20;;;5.20;99.90;;;;;;8305703;28;20244;-70
2023/01/07 02:09:40;;;;;;;4.87;3.00;;;5.20;99.90;;;;;;8303098;28;20198;-69
2023/01/07 02:14:06;;;;;;;3.93;3.10;;;5.20;99.90;;;;;;8309092;28;20202;-69
2023/01/07 02:18:16;;;;;;;6.73;4.00;;;5.20;99.90;;;;;;8323869;28;20214;-70
2023/01/07 02:22:41;;;;;;;5.60;4.37;;;5.10;99.90;;;;;;8304874;28;20194;-69
2023/01/07 02:27:04;;;;;;;8.03;5.30;;;5.10;99.90;;;;;;8305599;28;20225;-69
2023/01/07 02:31:26;;;;;;;8.80;6.37;;;5.00;99.90;;;;;;8304712;28;20201;-70
2023/01/07 02:35:27;;;;;;;9.87;7.53;;;4.90;99.90;;;;;;8313657;28;20213;-69
2023/01/07 02:39:59;;;;;;;13.67;9.80;;;4.80;99.90;;;;;;8307431;28;20241;-69
2023/01/07 02:44:13;;;;;;;10.97;8.33;;;4.70;99.90;;;;;;8304494;28;20460;-69
2023/01/07 02:48:16;;;;;;;12.37;8.40;;;4.70;99.90;;;;;;8304664;28;20293;-69
2023/01/07 02:52:26;;;;;;;9.87;7.37;;;4.60;99.90;;;;;;8297326;28;20233;-69
2023/01/07 02:56:30;;;;;;;9.80;7.33;;;4.50;99.90;;;;;;8290154;28;20199;-70
2023/01/07 03:00:49;;;;;;;7.50;5.53;;;4.50;99.90;;;;;;8297264;28;20194;-69
2023/01/07 03:05:11;;;;;;;7.33;5.50;;;4.40;99.90;;;;;;8300606;28;20186;-70
2023/01/07 03:09:15;;;;;;;9.93;6.70;;;4.40;99.90;;;;;;8301043;28;20374;-69
2023/01/07 03:13:22;;;;;;;9.30;7.20;;;4.30;99.90;;;;;;8304461;28;20202;-69
2023/01/07 03:17:33;;;;;;;13.23;8.77;;;4.30;99.90;;;;;;8302170;28;20225;-69
2023/01/07 03:21:36;;;;;;;12.80;9.27;;;4.20;99.90;;;;;;8301130;28;20186;-69
2023/01/07 03:25:45;;;;;;;14.07;9.67;;;4.20;99.90;;;;;;8304916;28;20191;-69
2023/01/07 03:29:48;;;;;;;13.63;10.20;;;4.30;99.90;;;;;;8300669;28;20192;-69
2023/01/07 03:34:02;;;;;;;15.57;10.13;;;4.40;99.90;;;;;;8305073;28;20221;-69
2023/01/07 03:38:04;;;;;;;12.13;9.97;;;4.60;99.90;;;;;;8300686;28;20414;-68
2023/01/07 03:46:29;;;;;;;12.03;8.67;;;4.70;99.90;;;;;;8302572;28;20205;-69
2023/01/07 03:50:30;;;;;;;13.30;8.13;;;4.80;99.90;;;;;;8297644;28;20194;-69
2023/01/07 03:54:30;;;;;;;10.17;7.10;;;4.90;99.90;;;;;;8300738;28;20446;-68
2023/01/07 03:58:31;;;;;;;8.67;6.43;;;5.10;99.90;;;;;;8300389;28;20223;-69
2023/01/07 04:02:32;;;;;;;11.40;6.53;;;5.20;99.90;;;;;;8300418;28;20278;-69
2023/01/07 04:06:33;;;;;;;7.90;5.57;;;5.30;99.90;;;;;;8297710;28;20217;-70
2023/01/07 04:10:34;;;;;;;5.87;4.90;;;5.40;99.90;;;;;;8302774;28;20282;-69
2023/01/07 04:14:34;;;;;;;4.57;3.90;;;5.40;99.90;;;;;;8300564;28;20248;-69
2023/01/07 04:18:35;;;;;;;5.13;3.67;;;5.30;99.90;;;;;;8297387;28;20222;-71
2023/01/07 04:22:36;;;;;;;4.23;3.50;;;5.20;99.90;;;;;;8302895;28;20202;-69
2023/01/07 04:26:37;;;;;;;5.63;4.20;;;5.20;99.90;;;;;;8301317;28;20265;-69
2023/01/07 04:30:38;;;;;;;4.33;3.43;;;5.30;99.90;;;;;;8302555;28;20186;-69
2023/01/07 04:34:38;;;;;;;5.50;3.50;;;5.20;99.90;;;;;;8296815;28;20242;-69
2023/01/07 04:38:39;;;;;;;4.40;3.20;;;5.10;99.90;;;;;;8298126;28;20214;-69
2023/01/07 04:42:40;;;;;;;3.37;3.07;;;5.00;99.90;;;;;;8292925;28;20231;-70
2023/01/07 04:46:41;;;;;;;3.30;2.87;;;4.80;99.90;;;;;;8298539;28;20285;-69
2023/01/07 04:50:41;;;;;;;4.67;3.33;;;4.70;99.90;;;;;;8300712;28;20230;-69
2023/01/07 04:54:42;;;;;;;5.43;3.30;;;4.70;99.90;;;;;;8299766;28;20200;-69
2023/01/07 04:58:43;;;;;;;4.10;3.20;;;4.70;99.90;;;;;;8296707;28;20242;-69
2023/01/07 05:02:44;;;;;;;8.03;3.83;;;4.80;99.90;;;;;;8299919;28;20249;-69
2023/01/07 05:06:44;;;;;;;4.40;3.10;;;4.90;99.90;;;;;;8296349;28;20198;-67
2023/01/07 05:10:48;;;;;;;5.10;3.90;;;5.00;99.90;;;;;;8301111;28;20198;-67
2023/01/07 05:14:49;;;;;;;7.33;3.87;;;5.00;99.90;;;;;;8297869;28;20777;-68
2023/01/07 05:18:50;;;;;;;6.97;4.03;;;5.00;99.90;;;;;;8301778;28;20222;-68
2023/01/07 05:22:51;;;;;;;6.57;3.87;;;5.10;99.90;;;;;;8301850;28;20186;-67
2023/01/07 05:26:52;;;;;;;7.10;4.33;;;5.30;99.90;;;;;;8292941;28;20194;-68
2023/01/07 05:30:52;;;;;;;6.40;4.33;;;5.40;99.90;;;;;;8298233;28;20202;-67
2023/01/07 05:34:53;;;;;;;5.50;4.17;;;5.60;99.90;;;;;;8298847;28;20258;-68
2023/01/07 05:38:54;;;;;;;6.40;4.23;;;5.70;99.90;;;;;;8301581;28;20228;-68
2023/01/07 05:42:55;;;;;;;6.30;4.70;;;5.90;99.90;;;;;;8293192;28;20187;-67
2023/01/07 05:46:56;;;;;;;5.60;4.80;;;6.00;99.90;;;;;;8298320;28;20281;-68
2023/01/07 05:50:56;;;;;;;7.20;4.57;;;6.10;99.90;;;;;;8301214;28;20336;-67
2023/01/07 05:54:57;;;;;;;5.00;3.83;;;6.20;99.90;;;;;;8302292;28;20194;-67
2023/01/07 05:58:58;;;;;;;3.80;2.97;;;6.30;99.90;;;;;;8296515;28;20218;-67
2023/01/07 06:02:59;;;;;;;4.93;3.80;;;6.40;99.90;;;;;;8301114;28;20193;-68
2023/01/07 06:07:00;;;;;;;5.67;3.53;;;6.40;99.90;;;;;;8295556;28;20437;-67
2023/01/07 06:11:02;;;;;;;6.03;3.60;;;6.50;99.90;;;;;;8303016;28;20195;-68
2023/01/07 06:15:05;;;;;;;3.57;3.20;;;6.50;99.90;;;;;;8313422;28;20203;-67
2023/01/07 06:19:06;;;;;;;4.43;3.53;;;6.60;99.90;;;;;;8297259;28;20220;-68
2023/01/07 06:23:09;;;;;;;3.83;3.40;;;6.60;99.90;;;;;;8302084;28;20199;-67
2023/01/07 06:27:10;;;;;;;5.03;3.43;;;6.60;99.90;;;;;;8301671;28;20284;-68
2023/01/07 06:31:10;;;;;;;4.93;3.30;;;6.60;99.90;;;;;;8293313;28;20285;-67
2023/01/07 06:35:11;;;;;;;4.07;3.67;;;6.60;99.90;;;;;;8293240;28;20234;-67
2023/01/07 06:39:12;;;;;;;5.53;3.57;;;6.50;99.90;;;;;;8294893;28;20225;-67
2023/01/07 06:43:13;;;;;;;3.97;3.40;;;6.50;99.90;;;;;;8295372;28;20620;-70
2023/01/07 06:47:14;;;;;;;3.90;3.23;;;6.50;99.90;;;;;;8317141;28;20202;-67
2023/01/07 06:51:15;;;;;;;4.37;3.17;;;6.40;99.90;;;;;;8302172;28;20233;-67
2023/01/07 06:55:16;;;;;;;4.43;3.00;;;6.40;99.90;;;;;;8302406;28;20221;-67
2023/01/07 06:59:16;;;;;;;3.53;3.07;;;6.20;99.90;;;;;;8294495;28;20225;-66
2023/01/07 07:03:17;;;;;;;4.73;3.30;;;6.20;99.90;;;;;;8302657;28;20197;-68
2023/01/07 07:07:19;;;;;;;5.67;3.90;;;6.20;99.90;;;;;;8302974;28;20195;-67
2023/01/07 07:11:19;;;;;;;4.33;3.20;;;6.30;99.90;;;;;;8301106;28;20198;-70
2023/01/07 07:15:20;;;;;;;4.20;3.13;;;6.50;99.90;;;;;;8301061;28;20201;-70
2023/01/07 07:19:21;;;;;;;4.37;3.27;;;6.60;99.90;;;;;;8299814;28;20210;-69
2023/01/07 07:23:22;;;;;;;4.40;3.00;;;6.70;99.90;;;;;;8307625;28;20190;-70
2023/01/07 07:27:23;;;;;;;4.43;2.90;;;6.80;99.90;;;;;;8301407;28;20187;-70
2023/01/07 07:31:24;;;;;;;6.43;3.20;;;6.90;99.90;;;;;;8305384;28;20187;-70
2023/01/07 07:35:24;;;;;;;3.80;3.00;;;7.00;99.90;;;;;;8297839;28;20206;-70
2023/01/07 07:39:25;;;;;;;4.57;3.80;;;7.10;99.90;;;;;;8306631;28;20206;-70
2023/01/07 07:43:26;;;;;;;6.13;4.53;;;7.20;99.90;;;;;;8320388;28;20194;-71
2023/01/07 07:47:27;;;;;;;6.77;5.00;;;7.20;99.90;;;;;;8309972;28;20217;-71
2023/01/07 07:51:28;;;;;;;6.77;5.30;;;7.40;99.90;;;;;;8313856;28;20292;-70
2023/01/07 07:55:29;;;;;;;5.90;4.83;;;7.50;99.90;;;;;;8307813;28;20301;-68
2023/01/07 07:59:30;;;;;;;4.67;3.97;;;7.60;99.90;;;;;;8304860;28;20229;-70
2023/01/07 08:03:30;;;;;;;5.33;3.57;;;7.70;99.90;;;;;;8324305;28;20529;-70
2023/01/07 08:07:31;;;;;;;4.20;3.00;;;7.90;99.90;;;;;;8299471;28;20180;-70
2023/01/07 08:11:32;;;;;;;3.20;2.90;;;8.00;99.90;;;;;;8303079;28;20272;-70
2023/01/07 08:15:33;;;;;;;3.10;2.37;;;8.10;99.90;;;;;;8297339;28;20189;-70
2023/01/07 08:19:34;;;;;;;3.93;3.23;;;8.20;99.90;;;;;;8300941;28;20348;-70
2023/01/07 08:23:34;;;;;;;4.40;2.80;;;8.20;99.90;;;;;;8294965;28;20190;-70
2023/01/07 08:27:35;;;;;;;3.33;2.63;;;8.10;99.90;;;;;;8294427;28;20248;-70
2023/01/07 08:31:36;;;;;;;3.30;2.67;;;8.00;99.90;;;;;;8305766;28;20193;-71
2023/01/07 08:35:37;;;;;;;4.33;3.30;;;7.80;99.90;;;;;;8308231;28;20320;-70
2023/01/07 08:39:38;;;;;;;4.53;3.13;;;7.80;99.90;;;;;;8307368;28;20243;-71
2023/01/07 08:43:38;;;;;;;4.90;2.80;;;7.70;99.90;;;;;;8303127;28;20252;-71
2023/01/07 08:47:39;;;;;;;3.10;2.50;;;7.60;99.90;;;;;;8308363;28;20183;-70
2023/01/07 08:51:40;;;;;;;5.50;3.27;;;7.70;99.90;;;;;;8310064;28;20271;-70
2023/01/07 08:55:41;;;;;;;3.97;2.63;;;7.80;99.90;;;;;;8312068;28;20194;-70
2023/01/07 08:59:42;;;;;;;5.60;3.40;;;8.10;99.90;;;;;;8307235;28;20211;-70
2023/01/07 09:03:43;;;;;;;4.13;3.00;;;8.30;99.90;;;;;;8297685;28;20185;-70
2023/01/07 09:07:44;;;;;;;3.83;3.20;;;8.50;99.90;;;;;;8292781;28;20189;-70
2023/01/07 09:11:45;;;;;;;3.83;2.73;;;8.70;99.90;;;;;;8298815;28;20186;-70
2023/01/07 09:15:46;;;;;;;3.07;2.60;;;8.90;99.90;;;;;;8299445;28;20209;-70
2023/01/07 09:19:46;;;;;;;3.67;2.70;;;9.10;99.90;;;;;;8296772;28;20206;-71
2023/01/07 09:23:47;;;;;;;4.17;2.50;;;9.20;99.90;;;;;;8294134;28;20279;-70
2023/01/07 09:27:50;;;;;;;3.00;2.53;;;9.30;99.90;;;;;;8303627;28;20488;-70
2023/01/07 09:31:51;;;;;;;4.30;2.73;;;9.30;99.90;;;;;;8299098;28;20189;-70
2023/01/07 09:35:52;;;;;;;4.03;2.90;;;9.40;99.90;;;;;;8291415;28;20211;-71
2023/01/07 09:39:52;;;;;;;2.80;2.23;;;9.50;99.90;;;;;;8307974;28;20288;-71
2023/01/07 09:44:00;;;;;;;4.13;2.97;;;9.60;99.90;;;;;;8306242;28;20186;-71
2023/01/07 09:48:11;;;;;;;4.37;3.40;;;9.60;99.90;;;;;;8299844;28;20233;-69
2023/01/07 09:52:21;;;;;;;3.53;3.03;;;9.80;99.90;;;;;;8302727;28;20187;-70
2023/01/07 09:56:28;;;;;;;4.30;3.20;;;9.80;99.90;;;;;;8292450;28;20186;-72
2023/01/07 10:00:34;;;;;;;3.83;3.37;;;9.90;99.90;;;;;;8306908;28;20208;-72
2023/01/07 10:04:45;;;;;;;4.57;3.63;;;10.00;99.90;;;;;;8323072;28;20184;-72
2023/01/07 10:09:08;;;;;;;5.47;3.50;;;10.20;99.90;;;;;;8304862;28;20674;-74
2023/01/07 10:13:38;;;;;;;5.13;3.33;;;10.40;99.90;;;;;;8306611;28;20184;-73
2023/01/07 10:17:46;;;;;;;5.60;3.37;;;10.50;47.10;;;;;;8313611;28;20228;-71
2023/01/07 10:22:01;;;;;;;5.27;3.43;;;10.60;1.00;;;;;;8333399;28;20184;-72
2023/01/07 10:26:02;;;;;;;5.80;3.63;;;10.50;1.00;;;;;;8322506;28;20178;-71
2023/01/07 10:30:18;;;;;;;4.13;3.10;;;10.40;1.00;;;;;;8299596;28;20197;-71
2023/01/07 10:34:24;;;;;;;5.40;3.63;;;10.30;1.00;;;;;;8304203;28;20208;-69
2023/01/07 10:38:27;;;;;;;6.27;3.83;;;10.30;1.00;;;;;;8300253;28;20316;-70
2023/01/07 10:42:37;;;;;;;4.43;3.50;;;10.40;1.00;;;;;;8305962;28;20267;-70
2023/01/07 10:46:47;;;;;;;6.97;3.67;;;10.50;1.00;;;;;;8300715;28;20633;-71
2023/01/07 10:51:03;;;;;;;4.67;3.10;;;10.50;1.00;;;;;;8310453;28;20192;-70
2023/01/07 10:55:38;;;;;;;3.07;2.53;;;10.40;99.90;;;;;;8305538;28;20274;-70
2023/01/07 10:59:41;;;;;;;4.30;3.30;;;10.40;1.00;;;;;;8307533;28;20209;-72
2023/01/07 11:03:42;;;;;;;4.17;3.00;;;10.60;1.00;;;;;;8301533;28;20224;-70
2023/01/07 11:07:55;;;;;;;3.97;3.30;;;10.80;1.00;;;;;;8304490;28;20186;-71
2023/01/07 11:12:04;;;;;;;4.97;2.83;;;11.00;99.90;;;;;;8309987;28;20194;-72
2023/01/07 11:16:17;;;;;;;4.43;3.13;;;11.10;99.90;;;;;;8313892;28;20275;-74
2023/01/07 11:20:47;;;;;;;4.10;3.20;;;11.20;99.90;;;;;;8298908;28;20272;-72
2023/01/07 11:24:48;;;;;;;5.10;3.23;;;11.30;99.90;;;;;;8305986;28;20364;-72
2023/01/07 11:28:59;;;;;;;2.83;2.50;;;11.50;99.90;;;;;;8306847;28;20197;-71
2023/01/07 11:33:06;;;;;;;3.50;2.80;;;11.70;99.90;;;;;;8290960;28;20194;-70
2023/01/07 11:37:10;;;;;;;2.57;1.93;;;11.90;99.90;;;;;;8298839;28;20218;-70
2023/01/07 11:41:24;;;;;;;3.00;2.30;;;12.00;99.90;;;;;;8294211;28;20206;-70
2023/01/07 11:45:37;;;;;;;2.53;2.07;;;12.10;99.90;;;;;;8317714;28;20673;-70
2023/01/07 11:49:43;;;;;;;2.50;2.20;;;12.00;99.90;;;;;;8301881;28;20194;-69
2023/01/07 11:53:47;;;;;;;3.03;2.20;;;11.70;99.90;;;;;;8306591;28;20190;-68
2023/01/07 11:57:53;;;;;;;3.10;2.03;;;11.60;99.90;;;;;;8308181;28;20241;-68
2023/01/07 12:01:57;;;;;;;3.57;1.70;;;11.40;99.90;;;;;;8301788;28;20221;-66
2023/01/07 12:06:06;;;;;;;3.93;2.80;;;11.20;99.90;;;;;;8300613;28;20208;-67
2023/01/07 12:10:24;;;;;;;2.63;2.07;;;11.10;99.90;;;;;;8300926;28;20495;-70
2023/01/07 12:14:35;;;;;;;2.67;2.07;;;11.00;99.90;;;;;;8305499;28;20201;-71
2023/01/07 12:18:54;;;;;;;3.53;2.30;;;11.00;99.90;;;;;;8324431;28;20261;-71
2023/01/07 12:23:26;;;;;;;3.30;2.03;;;10.90;99.90;;;;;;8304347;28;20183;-67
2023/01/07 12:28:03;;;;;;;1.93;1.60;;;10.80;99.90;;;;;;8302355;28;20191;-67
2023/01/07 12:32:26;;;;;;;2.20;1.70;;;10.70;99.90;;;;;;8301159;28;20186;-67
2023/01/07 12:37:00;;;;;;;5.40;4.63;;;10.60;99.90;;;;;;8303177;28;20213;-68
2023/01/07 12:41:10;;;;;;;24.90;20.47;;;10.60;99.90;;;;;;8302726;28;20293;-69
2023/01/07 12:45:23;;;;;;;3.73;3.17;;;10.50;99.90;;;;;;8293590;28;20194;-69
2023/01/07 12:49:49;;;;;;;3.93;2.80;;;10.60;99.90;;;;;;8317959;28;20277;-66
2023/01/07 12:54:13;;;;;;;2.80;2.40;;;10.70;99.90;;;;;;8300860;28;20195;-71
2023/01/07 12:58:32;;;;;;;3.17;2.10;;;10.80;99.90;;;;;;8295521;28;20213;-69
2023/01/07 13:02:47;;;;;;;3.07;1.90;;;10.80;99.90;;;;;;8296544;28;20194;-71
2023/01/07 13:06:56;;;;;;;3.60;2.47;;;11.00;99.90;;;;;;8297163;28;20191;-71
2023/01/07 13:11:12;;;;;;;3.87;2.40;;;11.10;99.90;;;;;;8306009;28;20178;-70
2023/01/07 13:15:25;;;;;;;2.97;2.17;;;11.20;99.90;;;;;;8312116;28;20478;-71
2023/01/07 13:19:26;;;;;;;3.40;2.23;;;11.40;99.90;;;;;;8299377;28;20297;-72
2023/01/07 13:23:43;;;;;;;3.47;2.40;;;11.50;99.90;;;;;;8296648;28;20193;-70
2023/01/07 13:28:02;;;;;;;2.37;2.07;;;11.40;99.90;;;;;;8301692;28;20197;-71
2023/01/07 13:32:39;;;;;;;2.83;1.80;;;11.40;99.90;;;;;;8303251;28;20183;-71
2023/01/07 13:37:02;;;;;;;2.37;1.87;;;11.30;99.90;;;;;;8299859;28;20233;-70
2023/01/07 13:41:24;;;;;;;2.93;2.10;;;11.30;99.90;;;;;;8303260;28;20194;-70
2023/01/07 13:45:26;;;;;;;5.70;3.10;;;11.40;99.90;;;;;;8296636;28;20236;-70
2023/01/07 13:49:34;;;;;;;3.67;2.70;;;11.40;99.90;;;;;;8300937;28;20245;-70
2023/01/07 13:53:36;;;;;;;2.40;1.90;;;11.30;99.90;;;;;;8290868;28;20240;-71
2023/01/07 13:57:37;;;;;;;3.23;2.00;;;11.10;99.90;;;;;;8293492;28;20207;-70
2023/01/07 14:02:15;;;;;;;4.10;2.03;;;10.90;99.90;;;;;;8297746;28;20237;-70
2023/01/07 14:06:19;;;;;;;19.33;15.70;;;10.70;99.90;;;;;;8304526;28;20278;-70
2023/01/07 14:10:28;;;;;;;23.87;18.67;;;10.70;99.90;;;;;;8301506;28;20186;-71
2023/01/07 14:14:45;;;;;;;11.67;9.97;;;10.60;99.90;;;;;;8307666;28;20240;-70
2023/01/07 14:18:51;;;;;;;6.27;5.37;;;10.40;99.90;;;;;;8310702;28;20697;-71
2023/01/07 14:23:01;;;;;;;4.10;3.70;;;10.30;99.90;;;;;;8298307;28;20213;-70
2023/01/07 14:27:17;;;;;;;4.53;3.80;;;10.20;1.00;;;;;;8301438;28;20200;-71
2023/01/07 14:31:24;;;;;;;3.50;2.80;;;10.10;1.00;;;;;;8304890;28;20219;-70
2023/01/07 14:35:34;;;;;;;3.20;2.57;;;9.90;1.00;;;;;;8295109;28;20237;-70
2023/01/07 14:39:40;;;;;;;2.80;2.13;;;9.80;1.00;;;;;;8300158;28;20217;-71
2023/01/07 14:43:42;;;;;;;3.20;2.23;;;9.60;54.80;;;;;;8304736;28;20185;-70
2023/01/07 14:47:42;;;;;;;2.60;1.93;;;9.40;99.90;;;;;;8305090;28;20220;-70
2023/01/07 14:52:05;;;;;;;2.40;1.80;;;9.20;99.90;;;;;;8301898;28;20200;-68
2023/01/07 14:56:24;;;;;;;2.47;2.00;;;8.90;99.90;;;;;;8302477;28;20198;-70
2023/01/07 15:00:46;;;;;;;3.10;1.87;;;8.50;99.90;;;;;;8303419;28;20294;-71
2023/01/07 15:05:11;;;;;;;3.03;2.20;;;8.20;99.90;;;;;;8319639;28;20213;-70
2023/01/07 15:18:14;;;;;;;2.53;2.10;;;7.40;75.60;;;;;;8296890;28;20319;-70
2023/01/07 15:22:41;;;;;;;2.30;2.00;;;7.10;99.90;;;;;;8297410;28;20587;-71
2023/01/07 15:26:50;;;;;;;2.60;2.20;;;7.00;99.90;;;;;;8293125;28;20194;-72
2023/01/07 15:31:21;;;;;;;2.80;2.20;;;6.80;1.00;;;;;;8299232;28;20194;-71
2023/01/07 15:35:27;;;;;;;3.90;2.63;;;6.70;1.00;;;;;;8296836;28;20214;-70
2023/01/07 15:39:42;;;;;;;3.50;2.33;;;6.50;99.90;;;;;;8297992;28;20808;-69
2023/01/07 15:43:43;;;;;;;2.37;2.17;;;6.30;99.90;;;;;;8314794;28;20183;-70
2023/01/07 15:47:44;;;;;;;3.13;2.40;;;6.10;99.90;;;;;;8303530;28;20186;-69
2023/01/07 15:51:48;;;;;;;4.07;3.00;;;6.00;1.00;;;;;;8292933;28;20352;-70
2023/01/07 15:56:02;;;;;;;3.13;2.73;;;5.90;99.90;;;;;;8294511;28;20205;-73
2023/01/07 16:00:07;;;;;;;3.57;3.00;;;5.70;99.90;;;;;;8315916;28;20447;-69
2023/01/07 16:04:25;;;;;;;3.90;3.30;;;5.50;1.00;;;;;;8290566;28;20186;-69
2023/01/07 16:08:32;;;;;;;5.90;4.03;;;5.40;99.90;;;;;;8293192;28;20259;-69
2023/01/07 16:12:34;;;;;;;4.77;3.43;;;5.30;1.00;;;;;;8293756;28;20195;-69
2023/01/07 16:16:34;;;;;;;5.50;4.13;;;5.20;99.90;;;;;;8297931;28;20199;-70
2023/01/07 16:20:39;;;;;;;6.33;4.27;;;5.10;14.60;;;;;;8290792;28;20237;-69
2023/01/07 16:24:52;;;;;;;5.07;3.53;;;4.90;30.00;;;;;;8297406;28;20186;-69
2023/01/07 16:29:07;;;;;;;5.53;4.33;;;4.80;41.60;;;;;;8300395;28;20194;-69
2023/01/07 16:33:16;;;;;;;86.93;33.33;;;4.70;99.90;;;;;;8295891;28;20187;-69
2023/01/07 16:37:17;;;;;;;52.60;18.83;;;4.60;1.00;;;;;;8298670;28;20214;-70
2023/01/07 16:41:21;;;;;;;24.63;11.87;;;4.50;1.00;;;;;;8294083;28;20480;-69
2023/01/07 16:45:28;;;;;;;19.17;9.30;;;4.50;1.00;;;;;;8300021;28;20201;-69
2023/01/07 16:49:29;;;;;;;17.27;8.70;;;4.30;99.90;;;;;;8295683;28;20198;-68
2023/01/07 16:53:34;;;;;;;23.33;10.13;;;4.20;1.00;;;;;;8299094;28;20186;-68
2023/01/07 16:57:40;;;;;;;17.53;8.80;;;4.10;99.90;;;;;;8296120;28;20206;-68
2023/01/07 17:01:41;;;;;;;16.77;9.77;;;4.10;99.90;;;;;;8302754;28;20187;-67
2023/01/07 17:05:55;;;;;;;14.20;9.20;;;3.90;1.00;;;;;;8300227;28;20182;-69
2023/01/07 17:09:59;;;;;;;17.53;9.77;;;3.90;1.00;;;;;;8301698;28;20186;-69
2023/01/07 17:14:00;;;;;;;15.50;8.33;;;3.80;99.90;;;;;;8302041;28;20221;-67
2023/01/07 17:18:16;;;;;;;15.37;9.40;;;3.70;1.00;;;;;;8303578;28;20213;-69
2023/01/07 17:22:30;;;;;;;14.53;10.17;;;3.60;99.90;;;;;;8297433;28;20274;-67
2023/01/07 17:26:32;;;;;;;15.17;9.90;;;3.60;1.00;;;;;;8300058;28;20197;-68
2023/01/07 17:30:35;;;;;;;15.60;10.20;;;3.50;1.00;;;;;;8295757;28;20196;-68
2023/01/07 17:34:36;;;;;;;14.43;10.10;;;3.50;26.20;;;;;;8300373;28;20286;-69
2023/01/07 17:38:37;;;;;;;13.97;9.10;;;3.40;1.00;;;;;;8296628;28;20225;-68
2023/01/07 17:47:01;;;;;;;14.80;9.30;;;3.30;71.00;;;;;;8290515;28;20218;-70
2023/01/07 17:51:04;;;;;;;13.27;8.00;;;3.30;99.90;;;;;;8300813;28;20193;-69
2023/01/07 17:55:05;;;;;;;12.47;7.97;;;3.20;99.90;;;;;;8285717;28;20192;-68
2023/01/07 17:59:13;;;;;;;12.90;8.87;;;3.20;99.90;;;;;;8295049;28;20333;-68
2023/01/07 18:03:14;;;;;;;13.93;8.37;;;3.10;99.90;;;;;;8294079;28;20232;-68
2023/01/07 18:07:15;;;;;;;12.77;7.63;;;3.10;99.90;;;;;;8296527;28;20196;-69
2023/01/07 18:15:39;;;;;;;9.53;6.90;;;3.00;99.90;;;;;;8296224;28;20231;-67
2023/01/07 18:19:40;;;;;;;9.90;7.33;;;2.90;99.90;;;;;;8290652;28;20215;-69
2023/01/07 18:23:41;;;;;;;10.80;7.10;;;2.90;99.90;;;;;;8293444;28;20195;-68
2023/01/07 18:27:42;;;;;;;11.83;7.90;;;2.90;99.90;;;;;;8297043;28;20186;-68
2023/01/07 18:31:44;;;;;;;10.97;7.03;;;2.80;99.90;;;;;;8299211;28;20237;-69
2023/01/07 18:35:47;;;;;;;13.37;8.53;;;2.70;99.90;;;;;;8295260;28;20203;-69
2023/01/07 18:39:48;;;;;;;11.47;7.53;;;2.60;99.90;;;;;;8299962;28;20297;-68
2023/01/07 18:43:49;;;;;;;11.40;8.03;;;2.50;99.90;;;;;;8298948;28;20183;-68
2023/01/07 18:47:50;;;;;;;12.47;8.50;;;2.50;99.90;;;;;;8305242;28;20192;-69
2023/01/07 18:51:50;;;;;;;14.27;9.50;;;2.40;99.90;;;;;;8295623;28;20198;-68
2023/01/07 18:56:00;;;;;;;12.97;8.80;;;2.30;99.90;;;;;;8307985;28;20247;-67
2023/01/07 19:00:05;;;;;;;15.40;10.13;;;2.30;99.90;;;;;;8305922;28;20235;-68
2023/01/07 19:04:06;;;;;;;21.60;14.77;;;2.20;99.90;;;;;;8302995;28;20190;-67
2023/01/07 19:08:07;;;;;;;30.60;20.03;;;2.10;99.90;;;;;;8295612;28;20237;-67
2023/01/07 19:12:10;;;;;;;30.97;21.30;;;2.00;99.90;;;;;;8300577;28;20672;-67
2023/01/07 19:16:12;;;;;;;26.47;16.43;;;2.00;99.90;;;;;;8302227;28;20175;-67
2023/01/07 19:20:14;;;;;;;20.13;13.73;;;1.80;99.90;;;;;;8290243;28;20360;-67
2023/01/07 19:24:15;;;;;;;19.47;13.73;;;1.80;99.90;;;;;;8300992;28;20241;-68
2023/01/07 19:28:16;;;;;;;16.20;12.20;;;1.70;99.90;;;;;;8302073;28;20186;-68
2023/01/07 19:32:17;;;;;;;21.87;13.73;;;1.60;99.90;;;;;;8294244;28;20182;-67
2023/01/07 19:36:19;;;;;;;19.60;12.57;;;1.60;99.90;;;;;;8291570;28;20220;-66
2023/01/07 19:40:20;;;;;;;22.60;13.60;;;1.60;99.90;;;;;;8297438;28;20214;-67
2023/01/07 19:44:20;;;;;;;41.37;21.43;;;1.50;99.90;;;;;;8301649;28;20269;-67
2023/01/07 19:48:22;;;;;;;65.30;33.50;;;1.50;99.90;;;;;;8291647;28;20331;-69
2023/01/07 19:52:23;;;;;;;39.70;21.17;;;1.50;99.90;;;;;;8281383;28;20540;-67
2023/01/07 19:56:24;;;;;;;31.00;15.90;;;1.40;99.90;;;;;;8294109;28;20233;-66
2023/01/07 20:00:25;;;;;;;30.53;15.50;;;1.30;99.90;;;;;;8295210;28;20202;-68
2023/01/07 20:04:28;;;;;;;29.67;14.97;;;1.20;99.90;;;;;;8296971;28;20178;-66
2023/01/07 20:08:29;;;;;;;30.47;15.93;;;1.10;99.90;;;;;;8300600;28;20428;-68
2023/01/07 20:12:31;;;;;;;22.27;12.20;;;1.10;99.90;;;;;;8289117;28;20209;-68
2023/01/07 20:16:35;;;;;;;15.87;10.27;;;1.00;99.90;;;;;;8299073;28;20226;-68
2023/01/07 20:20:36;;;;;;;19.83;12.10;;;1.00;99.90;;;;;;8293406;28;20210;-67
2023/01/07 20:24:37;;;;;;;23.33;12.80;;;0.90;99.90;;;;;;8302999;28;20191;-68
2023/01/07 20:28:38;;;;;;;91.43;33.07;;;1.00;99.90;;;;;;8298602;28;20252;-68
2023/01/07 20:32:40;;;;;;;77.77;30.57;;;1.00;99.90;;;;;;8299663;28;20198;-68
2023/01/07 20:36:41;;;;;;;55.63;21.50;;;1.00;99.90;;;;;;8294254;28;20364;-67
2023/01/07 20:40:42;;;;;;;26.83;14.93;;;0.90;99.90;;;;;;8296923;28;20222;-68
2023/01/07 20:44:45;;;;;;;22.00;13.57;;;0.80;99.90;;;;;;8297991;28;20229;-69
2023/01/07 20:48:47;;;;;;;56.13;27.17;;;0.70;99.90;;;;;;8294792;28;20195;-68
2023/01/07 20:52:48;;;;;;;91.87;41.80;;;0.50;99.90;;;;;;8293656;28;20490;-69
2023/01/07 20:56:49;;;;;;;114.47;49.37;;;0.40;99.90;;;;;;8298800;28;20183;-67
2023/01/07 21:00:50;;;;;;;81.33;39.47;;;0.40;99.90;;;;;;8290399;28;20237;-68
2023/01/07 21:04:52;;;;;;;74.80;35.03;;;0.40;99.90;;;;;;8300929;28;20224;-68
2023/01/07 21:08:53;;;;;;;64.70;33.20;;;0.30;99.90;;;;;;8269154;28;20313;-67
2023/01/07 21:12:53;;;;;;;66.33;34.63;;;0.20;99.90;;;;;;8286975;28;20183;-69
2023/01/07 21:16:54;;;;;;;53.90;28.83;;;0.20;99.90;;;;;;8289160;28;20189;-67
2023/01/07 21:20:55;;;;;;;55.73;27.93;;;0.10;99.90;;;;;;8317846;28;20229;-68
2023/01/07 21:24:56;;;;;;;68.27;37.27;;;0.10;99.90;;;;;;8323016;28;20235;-69
2023/01/07 21:28:57;;;;;;;67.87;34.27;;;0.10;99.90;;;;;;8324489;28;20205;-69
2023/01/07 21:32:58;;;;;;;69.63;35.67;;;0.00;99.90;;;;;;8307792;28;20273;-68
2023/01/07 21:36:59;;;;;;;71.17;37.33;;;-0.10;99.90;;;;;;8302488;28;20313;-69
2023/01/07 21:41:08;;;;;;;79.97;38.60;;;-0.20;99.90;;;;;;8296875;28;20203;-67
2023/01/07 21:45:09;;;;;;;73.13;36.67;;;-0.20;99.90;;;;;;8295016;28;20183;-68